Latest Weather Observations for Halls Creek

IDW60801

Issued at 1:32 pm WST Wednesday 1 June 2016 (issued every 30 minutes, with the page automatically refreshed every 10 minutes)

About weather observations | Map of weather stations | Latest weather observations for WA | Other Formats
Station Details ID: 002012 Name: HALLS CREEK AIRPORT Lat: -18.23 Lon: 127.66 Height: 422.0 m
Data from the previous 72 hours. | See also: Recent months at Halls Creek
Date/Time
WST
Temp
°C
App
Temp
°C
Dew
Point
Rel
Hum
%
Delta-T
°C
Wind Press
QNH
hPa
Press
MSL
hPa
Rain
since 9 am
mm
Dir
 
Spd
km/h
Gust
km/h
Spd
kts
Gust
kts
01/01:30pm 31.5 31.9 13.7 33 10.9 NNE 4 11 2 6 1014.7 - 0.0
01/01:00pm 30.9 30.9 13.5 34 10.6 NNE 6 13 3 7 1015.1 - 0.0
01/12:30pm 30.7 30.8 13.9 36 10.3 E 6 17 3 9 1015.6 - 0.0
01/12:00pm 29.8 29.6 13.7 37 9.8 ENE 7 17 4 9 1016.2 1014.6 0.0
01/11:30am 29.6 29.6 14.3 39 9.4 NE 7 17 4 9 1016.8 - 0.0
01/11:00am 29.2 29.1 13.9 39 9.3 ENE 7 19 4 10 1017.2 - 0.0
01/10:30am 28.4 28.4 14.1 41 8.7 ENE 7 17 4 9 1017.6 - 0.0
01/10:00am 27.6 26.8 14.1 43 8.2 ENE 11 22 6 12 1018.1 - 0.0
01/09:30am 27.4 27.3 14.0 43 8.1 ENE 7 19 4 10 1018.8 - 0.0
01/09:00am 25.8 25.4 14.0 48 7.1 ENE 9 20 5 11 1019.1 1017.5 0.0
01/08:30am 24.9 24.9 14.3 51 6.4 ENE 7 19 4 10 1019.1 - 0.0
01/08:00am 23.2 23.3 14.5 58 5.2 NE 7 19 4 10 1019.1 - 0.0
01/07:30am 21.9 22.4 15.1 65 4.1 E 6 13 3 7 1019.0 - 0.0
01/07:00am 20.8 21.4 15.3 71 3.3 E 6 9 3 5 1019.0 - 0.0
01/06:30am 19.3 20.3 15.3 77 2.4 E 4 7 2 4 1018.8 - 0.0
01/06:00am 18.4 19.4 15.4 83 1.8 E 4 6 2 3 1018.5 1016.9 0.0
01/05:30am 18.4 19.5 15.6 84 1.7 ESE 4 6 2 3 1018.1 - 0.0
01/05:00am 18.8 19.5 15.5 81 2.0 ESE 6 11 3 6 1017.7 - 0.0
01/04:30am 19.3 20.0 15.6 79 2.2 E 6 11 3 6 1017.3 - 0.0
01/04:00am 19.5 20.4 16.0 80 2.1 E 6 9 3 5 1017.3 - 0.0
01/03:30am 19.6 20.5 16.1 80 2.1 ESE 6 9 3 5 1017.3 - 0.0
01/03:00am 19.4 20.9 16.6 84 1.7 SE 4 7 2 4 1017.0 1015.4 0.0
01/02:30am 20.0 21.2 16.9 82 1.9 ESE 6 7 3 4 1016.8 - 0.0
01/02:00am 20.5 21.9 17.3 82 2.0 ESE 6 9 3 5 1016.7 - 0.0
01/01:30am 21.0 22.5 17.7 81 2.1 ESE 6 11 3 6 1016.7 - 0.0
01/01:00am 21.4 22.9 17.7 79 2.3 ESE 6 11 3 6 1017.0 - 0.0
01/12:30am 21.3 23.2 17.6 79 2.3 SE 4 6 2 3 1017.0 - 0.0
01/12:00am 21.9 23.9 17.8 77 2.6 ESE 4 7 2 4 1017.2 1015.1 0.0
 
Date/Time
WST
Temp
°C
App
Temp
°C
Dew
Point
Rel
Hum
%
Delta-T
°C
Wind Press
QNH
hPa
Press
MSL
hPa
Rain
since 9 am
mm
Dir
 
Spd
km/h
Gust
km/h
Spd
kts
Gust
kts
31/11:30pm 22.7 24.6 17.6 73 3.2 E 4 9 2 5 1017.2 - 0.0
31/11:00pm 23.0 25.0 17.8 72 3.3 ENE 4 6 2 3 1017.2 - 0.0
31/10:30pm 23.4 25.3 17.7 70 3.6 E 4 6 2 3 1017.4 - 0.0
31/10:00pm 24.0 25.5 17.5 67 4.1 ENE 6 11 3 6 1017.7 - 0.0
31/09:30pm 24.4 26.7 17.6 66 4.3 E 2 6 1 3 1017.4 - 0.0
31/09:00pm 24.9 26.2 17.1 62 4.9 ESE 6 11 3 6 1017.4 1015.4 0.0
31/08:30pm 25.1 26.4 17.0 60 5.1 ESE 6 9 3 5 1017.4 - 0.0
31/08:00pm 25.6 26.9 17.0 59 5.4 ESE 6 9 3 5 1017.3 - 0.0
31/07:30pm 26.2 27.8 17.0 57 5.8 E 4 7 2 4 1017.0 - 0.0
31/07:00pm 26.5 28.1 17.0 56 6.0 E 4 9 2 5 1016.8 - 0.0
31/06:30pm 27.0 27.8 16.3 52 6.7 ESE 7 15 4 8 1016.3 - 0.0
31/06:00pm 27.7 28.4 16.2 49 7.2 E 7 15 4 8 1016.0 1013.9 0.0
31/05:30pm 28.2 28.7 15.5 46 7.9 ESE 7 17 4 9 1015.6 - 0.0
31/05:00pm 28.9 29.5 15.2 43 8.5 ESE 6 9 3 5 1015.2 - 0.0
31/04:30pm 30.0 30.6 15.3 41 9.2 E 6 15 3 8 1014.9 - 0.0
31/04:00pm 30.7 31.2 15.0 38 9.8 ENE 6 11 3 6 1014.4 - 0.0
31/03:30pm 31.1 31.3 14.7 37 10.2 E 7 15 4 8 1014.3 - 0.0
31/03:00pm 31.1 31.4 14.5 36 10.3 ESE 6 13 3 7 1014.2 1012.1 0.0
31/02:30pm 30.7 31.0 15.0 38 9.8 SSE 7 15 4 8 1014.2 - 0.0
31/02:00pm 31.7 32.4 15.5 37 10.2 E 6 11 3 6 1014.2 - 0.0
31/01:30pm 30.6 31.1 15.5 40 9.5 E 7 13 4 7 1014.4 - 0.0
31/01:00pm 31.1 31.8 15.7 39 9.7 ESE 6 17 3 9 1014.5 - 0.0
31/12:30pm 29.6 30.5 16.5 45 8.3 ESE 7 13 4 7 1014.9 - 0.0
31/12:00pm 30.3 31.2 16.5 43 8.8 SE 7 15 4 8 1015.6 1013.5 0.0
31/11:30am 29.7 31.0 17.2 47 8.0 ENE 6 15 3 8 1016.2 - 0.0
31/11:00am 29.7 30.8 17.2 47 8.0 ESE 7 17 4 9 1016.4 - 0.0
31/10:30am 28.6 29.9 17.5 51 7.1 NE 7 15 4 8 1016.9 - 0.0
31/10:00am 27.7 28.8 17.9 55 6.3 E 9 19 5 10 1017.4 - 0.0
31/09:30am 26.9 28.4 18.0 58 5.7 E 7 13 4 7 1017.9 - 0.0
31/09:00am 26.6 27.8 18.2 60 5.4 ESE 9 15 5 8 1018.3 1016.2 0.0
31/08:30am 25.2 27.0 18.2 65 4.5 E 6 11 3 6 1018.3 - 0.0
31/08:00am 25.3 27.0 18.1 64 4.6 E 6 11 3 6 1018.0 - 0.0
31/07:30am 25.2 26.9 18.0 64 4.6 E 6 13 3 7 1017.7 - 0.0
31/07:00am 23.1 24.8 17.2 69 3.7 ESE 4 9 2 5 1017.2 - 0.0
31/06:30am 22.4 24.2 16.4 69 3.7 E 2 6 1 3 1017.0 - 0.0
31/06:00am 22.1 22.9 14.8 63 4.4 ENE 4 6 2 3 1016.7 1014.6 0.0
31/05:30am 21.9 23.0 14.7 63 4.3 NNE 2 4 1 2 1016.2 - 0.0
31/05:00am 21.5 22.4 14.1 62 4.4 SSE 2 4 1 2 1015.9 - 0.0
31/04:30am 22.3 23.0 14.4 61 4.7 SW 4 7 2 4 1015.5 - 0.0
31/04:00am 22.0 22.9 13.9 60 4.8 SSW 2 4 1 2 1015.3 - 0.0
31/03:30am 22.2 22.6 13.7 58 5.0 SW 4 6 2 3 1015.4 - 0.0
31/03:00am 22.6 23.5 14.0 58 5.1 WNW 2 6 1 3 1015.2 1013.0 0.0
31/02:30am 23.2 24.6 14.4 57 5.3 CALM 0 2 0 1 1015.2 - 0.0
31/02:00am 23.7 24.2 14.0 54 5.8 SSE 4 6 2 3 1015.4 - 0.0
31/01:30am 24.1 24.5 13.7 52 6.2 SSW 4 6 2 3 1015.5 - 0.0
31/01:00am 24.5 24.9 13.8 51 6.4 WSW 4 6 2 3 1015.3 - 0.0
31/12:30am 24.5 24.9 13.8 51 6.4 WSW 4 6 2 3 1015.4 - 0.0
31/12:00am 24.8 25.2 13.8 50 6.6 WSW 4 6 2 3 1015.4 1013.3 0.0
 
Date/Time
WST
Temp
°C
App
Temp
°C
Dew
Point
Rel
Hum
%
Delta-T
°C
Wind Press
QNH
hPa
Press
MSL
hPa
Rain
since 9 am
mm
Dir
 
Spd
km/h
Gust
km/h
Spd
kts
Gust
kts
30/11:30pm 24.8 25.3 14.0 51 6.5 WSW 4 6 2 3 1015.4 - 0.0
30/11:00pm 25.3 26.2 14.0 49 6.8 SW 2 4 1 2 1015.4 - 0.0
30/10:30pm 26.1 26.8 14.4 48 7.1 S 4 6 2 3 1015.7 - 0.0
30/10:00pm 26.2 26.7 14.1 47 7.3 SW 4 6 2 3 1015.9 - 0.0
30/09:30pm 26.6 27.7 14.6 47 7.3 SSW 2 4 1 2 1016.0 - 0.0
30/09:00pm 26.7 27.0 13.5 44 7.9 SSW 4 6 2 3 1016.1 1014.0 0.0
30/08:30pm 26.9 27.8 14.0 45 7.8 W 2 6 1 3 1015.9 - 0.0
30/08:00pm 27.1 28.2 14.7 46 7.6 SW 2 4 1 2 1015.8 - 0.0
30/07:30pm 27.8 28.9 14.6 44 8.1 WNW 2 4 1 2 1015.5 - 0.0
30/07:00pm 27.9 29.1 14.9 45 8.0 WSW 2 6 1 3 1014.9 - 0.0
30/06:30pm 28.1 29.2 14.6 43 8.3 WSW 2 6 1 3 1014.7 - 0.0
30/06:00pm 28.6 30.8 16.4 47 7.7 CALM 0 2 0 1 1014.3 1012.2 0.0
30/05:30pm 29.7 31.6 16.7 45 8.3 WNW 2 4 1 2 1013.9 - 0.0
30/05:00pm 31.0 30.8 13.5 34 10.7 NW 7 15 4 8 1013.6 - 0.0
30/04:30pm 31.7 31.7 13.6 33 11.1 NW 6 13 3 7 1013.2 - 0.0
30/04:00pm 32.2 31.3 12.5 30 11.9 NNW 9 19 5 10 1012.7 - 0.0
30/03:30pm 32.4 31.9 13.7 32 11.5 NNW 9 20 5 11 1012.3 - 0.0
30/03:00pm 31.8 31.6 13.1 32 11.4 NNW 6 15 3 8 1012.1 1010.0 0.0
30/02:30pm 31.5 31.4 13.8 34 10.9 N 7 17 4 9 1012.1 - 0.0
30/02:00pm 32.2 31.9 13.4 32 11.5 N 7 19 4 10 1012.1 - 0.0
30/01:30pm 33.6 32.4 13.9 30 12.2 NW 13 20 7 11 1012.2 - 0.0
30/01:00pm 31.3 31.7 14.8 36 10.3 NNW 6 13 3 7 1012.3 - 0.0
30/12:30pm 32.6 31.9 14.2 32 11.4 NNW 11 26 6 14 1012.9 - 0.0
30/12:00pm 32.5 31.9 14.5 33 11.2 NNW 11 22 6 12 1013.4 1011.3 0.0
30/11:30am 30.7 30.4 14.3 36 10.1 NNW 9 20 5 11 1014.0 - 0.0
30/11:00am 30.9 30.7 14.6 37 10.1 N 9 22 5 12 1014.5 - 0.0
30/10:30am 31.8 31.1 14.4 34 10.8 N 11 24 6 13 1014.7 - 0.0
30/10:00am 31.8 32.0 14.8 35 10.6 NNW 7 20 4 11 1015.1 - 0.0
30/09:30am 30.9 31.2 14.6 37 10.1 N 6 17 3 9 1015.5 - 0.0
30/09:00am 30.2 30.5 14.9 39 9.5 NNE 7 15 4 8 1015.6 1013.5 0.0
30/08:30am 28.9 28.9 14.2 40 9.0 NE 7 15 4 8 1015.9 - 0.0
30/08:00am 27.0 27.5 13.9 44 7.9 NE 4 9 2 5 1015.9 - 0.0
30/07:30am 24.7 25.1 13.6 50 6.6 NE 4 6 2 3 1015.6 - 0.0
30/07:00am 23.3 24.2 13.9 55 5.6 NE 2 2 1 1 1015.2 - 0.0
30/06:30am 21.7 22.4 13.3 59 4.9 ENE 2 4 1 2 1014.9 - 0.0
30/06:00am 21.0 22.0 14.3 65 4.0 E 2 4 1 2 1014.6 1012.5 0.0
30/05:30am 20.9 21.9 14.3 66 3.9 E 2 2 1 1 1014.4 - 0.0
30/05:00am 21.7 22.0 13.3 59 4.9 NNE 4 6 2 3 1014.1 - 0.0
30/04:30am 22.4 22.4 12.4 53 5.8 NNE 4 6 2 3 1014.1 - 0.0
30/04:00am 22.0 22.7 13.3 57 5.1 NNE 2 4 1 2 1013.9 - 0.0
30/03:30am 22.1 22.2 12.6 55 5.5 N 4 4 2 2 1013.8 - 0.0
30/03:00am 22.2 22.7 12.9 55 5.4 NE 2 4 1 2 1013.6 1011.5 0.0
30/02:30am 22.8 23.3 12.7 53 5.9 W 2 4 1 2 1013.7 - 0.0
30/02:00am 23.5 23.5 12.5 50 6.4 WSW 4 6 2 3 1013.9 - 0.0
30/01:30am 23.8 24.3 12.9 50 6.4 S 2 7 1 4 1014.0 - 0.0
30/01:00am 24.8 25.0 12.9 47 7.0 SW 4 6 2 3 1014.2 - 0.0
30/12:30am 24.4 25.0 13.0 49 6.7 SW 2 7 1 4 1014.1 - 0.0
30/12:00am 23.6 24.0 12.6 50 6.4 W 2 4 1 2 1014.1 1012.0 0.0
 
Date/Time
WST
Temp
°C
App
Temp
°C
Dew
Point
Rel
Hum
%
Delta-T
°C
Wind Press
QNH
hPa
Press
MSL
hPa
Rain
since 9 am
mm
Dir
 
Spd
km/h
Gust
km/h
Spd
kts
Gust
kts
29/11:30pm 24.6 24.9 12.2 46 7.2 WNW 2 4 1 2 1014.3 - 0.0
29/11:00pm 24.0 24.0 12.3 48 6.8 WSW 4 7 2 4 1014.4 - 0.0
29/10:30pm 24.6 25.0 12.5 46 7.1 WSW 2 4 1 2 1014.5 - 0.0
29/10:00pm 24.1 24.6 12.7 49 6.7 NNW 2 4 1 2 1014.7 - 0.0
29/09:30pm 24.2 24.3 12.6 48 6.8 SW 4 9 2 5 1014.9 - 0.0
29/09:00pm 25.0 25.1 12.6 46 7.3 NW 4 6 2 3 1014.9 1012.8 0.0
29/08:30pm 25.1 25.9 12.7 46 7.3 CALM 0 2 0 1 1014.8 - 0.0
29/08:00pm 25.3 25.4 12.7 45 7.4 NE 4 6 2 3 1014.8 - 0.0
29/07:30pm 26.4 27.2 12.5 42 8.2 CALM 0 0 0 0 1014.7 - 0.0
29/07:00pm 26.6 27.7 13.4 44 7.9 CALM 0 0 0 0 1014.4 - 0.0
29/06:30pm 27.2 28.3 13.6 43 8.2 CALM 0 2 0 1 1014.1 - 0.0
29/06:00pm 27.8 28.5 13.3 40 8.7 NNW 2 2 1 1 1013.8 1011.7 0.0
29/05:30pm 28.9 29.7 13.8 39 9.2 N 2 4 1 2 1013.6 - 0.0
29/05:00pm 30.6 31.7 14.6 37 9.9 N 2 2 1 1 1013.3 - 0.0
29/04:30pm 31.8 31.2 10.4 26 12.5 NNW 4 11 2 6 1013.0 - 0.0
29/04:00pm 33.0 32.7 11.6 27 12.8 NW 4 9 2 5 1012.7 - 0.0
29/03:30pm 33.1 31.7 9.4 23 13.7 WNW 7 15 4 8 1012.6 - 0.0
29/03:00pm 32.9 31.7 9.6 24 13.5 NW 6 13 3 7 1012.4 1010.3 0.0
29/02:30pm 33.4 32.2 9.7 23 13.8 NNW 6 15 3 8 1012.6 - 0.0
29/02:00pm 34.0 33.5 10.7 24 13.8 NE 4 15 2 8 1012.7 - 0.0

Other Formats:

Comma delimited format used in spreadsheet applications
http://www.bom.gov.au/fwo/IDW60801/IDW60801.94212.axf

JavaScript Object Notation format (JSON) in row-major order
http://www.bom.gov.au/fwo/IDW60801/IDW60801.94212.json